createdAt,value
2023-01-25T00:01:17.378Z,6.67
2023-01-25T00:03:44.976Z,6.59
2023-01-25T00:06:15.535Z,6.55
2023-01-25T00:08:43.301Z,6.50
2023-01-25T00:11:10.916Z,6.58
2023-01-25T00:13:38.990Z,6.70
2023-01-25T00:16:06.959Z,6.49
2023-01-25T00:18:34.716Z,6.73
2023-01-25T00:21:17.666Z,6.70
2023-01-25T00:23:45.413Z,6.65
2023-01-25T00:26:12.977Z,6.62
2023-01-25T00:28:40.595Z,6.64
2023-01-25T00:31:22.569Z,6.56
2023-01-25T00:34:25.219Z,6.48
2023-01-25T00:36:58.864Z,6.47
2023-01-25T00:39:27.561Z,6.50
2023-01-25T00:41:55.837Z,6.59
2023-01-25T00:44:24.972Z,6.58
2023-01-25T00:46:52.597Z,6.64
2023-01-25T00:49:26.988Z,6.64
2023-01-25T00:51:55.905Z,6.72
2023-01-25T00:54:24.014Z,6.83
2023-01-25T00:56:56.482Z,6.78
2023-01-25T00:59:25.303Z,6.73
2023-01-25T01:01:55.884Z,6.82
2023-01-25T01:04:26.936Z,6.66
2023-01-25T01:06:55.458Z,6.59
2023-01-25T01:09:24.198Z,6.66
2023-01-25T01:11:53.969Z,6.72
2023-01-25T01:14:23.326Z,6.84
2023-01-25T01:16:51.637Z,6.81
2023-01-25T01:19:22.266Z,6.73
2023-01-25T01:21:49.820Z,6.61
2023-01-25T01:24:20.235Z,6.66
2023-01-25T01:26:47.950Z,6.51
2023-01-25T01:29:15.530Z,6.62
2023-01-25T01:31:43.352Z,6.63
2023-01-25T01:34:16.945Z,6.80
2023-01-25T01:36:45.249Z,6.75
2023-01-25T01:39:13.067Z,6.72
2023-01-25T01:41:42.526Z,6.74
2023-01-25T01:44:48.230Z,6.58
2023-01-25T01:47:32.957Z,6.57
2023-01-25T01:50:21.579Z,6.60
2023-01-25T01:52:51.804Z,6.64
2023-01-25T01:55:27.914Z,6.74
2023-01-25T01:57:58.696Z,6.59
2023-01-25T02:00:33.510Z,6.53
2023-01-25T02:03:02.416Z,6.62
2023-01-25T02:05:51.336Z,6.79
2023-01-25T02:08:20.166Z,6.70
2023-01-25T02:10:50.266Z,6.81
2023-01-25T02:13:20.010Z,6.76
2023-01-25T02:15:52.006Z,6.61
2023-01-25T02:18:20.490Z,6.74
2023-01-25T02:20:52.054Z,6.61
2023-01-25T02:23:33.470Z,6.66
2023-01-25T02:26:06.596Z,6.60
2023-01-25T02:28:47.357Z,6.59
2023-01-25T02:31:15.625Z,6.75
2023-01-25T02:33:43.462Z,6.79
2023-01-25T02:36:27.833Z,6.75
2023-01-25T02:39:02.573Z,6.73
2023-01-25T02:41:40.695Z,6.55
2023-01-25T02:44:14.110Z,6.52
2023-01-25T02:46:47.913Z,6.70
2023-01-25T02:49:17.229Z,6.61
2023-01-25T02:51:57.545Z,6.65
2023-01-25T02:54:27.023Z,6.67
2023-01-25T02:56:55.913Z,6.66
2023-01-25T02:59:26.147Z,6.66
2023-01-25T03:01:58.082Z,6.60
2023-01-25T03:04:25.782Z,6.56
2023-01-25T03:06:53.565Z,6.58
2023-01-25T03:09:21.227Z,6.59
2023-01-25T03:11:50.629Z,6.48
2023-01-25T03:14:20.867Z,6.49
2023-01-25T03:16:48.430Z,6.55
2023-01-25T03:19:17.705Z,6.61
2023-01-25T03:21:46.855Z,6.68
2023-01-25T03:24:15.715Z,6.50
2023-01-25T03:27:07.379Z,6.54
2023-01-25T03:29:45.550Z,6.59
2023-01-25T03:32:18.041Z,6.46
2023-01-25T03:34:45.906Z,6.22
2023-01-25T03:37:14.605Z,6.21
2023-01-25T03:39:43.465Z,6.33
2023-01-25T03:42:11.171Z,6.25
2023-01-25T03:44:38.890Z,6.36
2023-01-25T03:47:07.158Z,6.38
2023-01-25T03:49:34.751Z,6.36
2023-01-25T03:52:04.011Z,6.52
2023-01-25T03:54:38.136Z,6.38
2023-01-25T03:57:07.100Z,6.51
2023-01-25T03:59:42.150Z,6.45
2023-01-25T04:02:10.110Z,6.47
2023-01-25T04:04:37.883Z,6.19
2023-01-25T04:07:05.537Z,6.31
2023-01-25T04:09:34.972Z,6.34
2023-01-25T04:12:02.579Z,6.38
2023-01-25T04:14:44.044Z,6.43
2023-01-25T04:17:17.159Z,6.58
2023-01-25T04:20:00.604Z,6.50
2023-01-25T04:22:35.631Z,6.61
2023-01-25T04:25:05.917Z,6.55
2023-01-25T04:27:34.193Z,6.53
2023-01-25T04:30:10.450Z,6.68
2023-01-25T04:32:38.740Z,6.66
2023-01-25T04:35:22.984Z,6.53
2023-01-25T04:37:58.559Z,6.57
2023-01-25T04:40:31.663Z,6.55
2023-01-25T04:42:59.761Z,6.46
2023-01-25T04:45:27.517Z,6.30
2023-01-25T04:47:59.113Z,6.28
2023-01-25T04:50:28.495Z,6.39
2023-01-25T04:52:56.647Z,6.48
2023-01-25T04:55:30.623Z,6.55
2023-01-25T04:58:00.491Z,6.49
2023-01-25T05:00:29.097Z,6.53
2023-01-25T05:03:00.355Z,6.54
2023-01-25T05:05:28.413Z,6.64
2023-01-25T05:07:56.981Z,6.44
2023-01-25T05:10:24.968Z,6.46
2023-01-25T05:13:14.690Z,6.53
2023-01-25T05:15:43.757Z,6.40
2023-01-25T05:18:11.309Z,6.42
2023-01-25T05:20:38.997Z,6.30
2023-01-25T05:23:07.673Z,6.28
2023-01-25T05:25:58.748Z,6.32
2023-01-25T05:28:31.219Z,6.40
2023-01-25T05:31:21.996Z,6.52
2023-01-25T05:33:49.967Z,6.47
2023-01-25T05:36:19.039Z,6.52
2023-01-25T05:38:47.348Z,6.43
2023-01-25T05:41:15.051Z,6.38
2023-01-25T05:43:44.138Z,6.40
2023-01-25T05:46:11.852Z,6.23
2023-01-25T05:48:40.166Z,6.01
2023-01-25T05:51:09.126Z,6.28
2023-01-25T05:53:36.795Z,6.15
2023-01-25T05:56:10.280Z,6.24
2023-01-25T05:58:39.278Z,6.22
2023-01-25T06:01:08.307Z,6.37
2023-01-25T06:03:48.107Z,6.37
2023-01-25T06:06:16.085Z,6.43
2023-01-25T06:08:44.724Z,6.40
2023-01-25T06:11:18.901Z,6.41
2023-01-25T06:13:48.798Z,6.42
2023-01-25T06:16:18.244Z,6.44
2023-01-25T06:19:07.936Z,6.54
2023-01-25T06:22:09.174Z,6.42
2023-01-25T06:24:36.833Z,6.48
2023-01-25T06:27:04.492Z,6.38
2023-01-25T06:29:32.149Z,6.37
2023-01-25T06:31:59.924Z,6.39
2023-01-25T06:34:27.824Z,6.44
2023-01-25T06:36:55.543Z,6.08
2023-01-25T06:39:23.233Z,6.20
2023-01-25T06:41:50.871Z,6.22
2023-01-25T06:44:18.464Z,6.29
2023-01-25T06:46:46.131Z,6.29
2023-01-25T06:49:13.934Z,6.37
2023-01-25T06:51:41.536Z,6.50
2023-01-25T06:54:09.068Z,6.47
2023-01-25T06:56:36.723Z,6.46
2023-01-25T06:59:04.287Z,6.40
2023-01-25T07:01:33.736Z,6.34
2023-01-25T07:04:01.687Z,6.43
2023-01-25T07:06:34.218Z,6.55
2023-01-25T07:09:09.690Z,6.48
2023-01-25T07:11:37.722Z,6.29
2023-01-25T07:14:06.364Z,6.38
2023-01-25T07:16:37.307Z,6.45
2023-01-25T07:19:07.419Z,6.40
2023-01-25T07:21:35.536Z,6.36
2023-01-25T07:24:05.108Z,6.44
2023-01-25T07:26:33.522Z,6.41
2023-01-25T07:29:01.780Z,6.49
2023-01-25T07:31:30.318Z,6.27
2023-01-25T07:33:58.649Z,5.99
2023-01-25T07:36:26.971Z,6.28
2023-01-25T07:38:58.668Z,6.40
2023-01-25T07:41:26.906Z,6.22
2023-01-25T07:43:55.151Z,6.32
2023-01-25T07:46:43.172Z,5.88
2023-01-25T07:49:11.238Z,6.21
2023-01-25T07:51:39.191Z,6.20
2023-01-25T07:54:07.239Z,6.19
2023-01-25T07:56:38.450Z,5.88
2023-01-25T07:59:08.385Z,5.76
2023-01-25T08:01:36.933Z,6.20
2023-01-25T08:04:05.830Z,6.17
2023-01-25T08:06:40.923Z,5.54
2023-01-25T08:09:21.568Z,5.67
2023-01-25T08:11:49.437Z,6.10
2023-01-25T08:14:17.809Z,5.96
2023-01-25T08:16:45.422Z,5.58
2023-01-25T08:19:13.246Z,5.93
2023-01-25T08:21:40.822Z,5.90
2023-01-25T08:24:11.212Z,5.72
2023-01-25T08:26:39.228Z,5.90
2023-01-25T08:29:07.502Z,5.87
2023-01-25T08:31:37.082Z,6.05
2023-01-25T08:34:05.670Z,5.87
2023-01-25T08:36:33.983Z,5.82
2023-01-25T08:39:07.930Z,5.47
2023-01-25T08:41:36.561Z,5.47
2023-01-25T08:44:05.099Z,5.46
2023-01-25T08:46:34.204Z,5.15
2023-01-25T08:49:02.622Z,5.17
2023-01-25T08:51:32.358Z,5.35
2023-01-25T08:54:12.749Z,5.67
2023-01-25T08:56:41.957Z,5.78
2023-01-25T08:59:13.222Z,6.15
2023-01-25T09:01:41.160Z,5.97
2023-01-25T09:04:09.275Z,6.25
2023-01-25T09:06:36.886Z,6.16
2023-01-25T09:09:05.188Z,5.91
2023-01-25T09:11:37.288Z,5.96
2023-01-25T09:14:05.792Z,6.24
2023-01-25T09:16:33.524Z,6.29
2023-01-25T09:19:04.177Z,5.53
2023-01-25T09:21:33.775Z,5.77
2023-01-25T09:24:06.598Z,6.15
2023-01-25T09:26:39.288Z,6.46
2023-01-25T09:29:08.329Z,5.88
2023-01-25T09:31:40.389Z,5.82
2023-01-25T09:34:29.956Z,5.79
2023-01-25T09:36:57.705Z,6.14
2023-01-25T09:39:25.575Z,6.17
2023-01-25T09:42:14.690Z,6.35
2023-01-25T09:45:21.168Z,6.56
2023-01-25T09:48:02.630Z,6.15
2023-01-25T09:51:12.698Z,6.24
2023-01-25T09:53:53.495Z,6.23
2023-01-25T09:56:34.262Z,6.35
2023-01-25T09:59:11.369Z,6.57
2023-01-25T10:01:56.171Z,6.81
2023-01-25T10:04:28.936Z,6.92
2023-01-25T10:07:29.137Z,6.58
2023-01-25T10:10:14.764Z,6.19
2023-01-25T10:12:42.401Z,5.93
2023-01-25T10:15:40.071Z,5.47
2023-01-25T10:18:54.402Z,6.15
2023-01-25T10:21:32.611Z,6.52
2023-01-25T10:24:28.365Z,6.67
2023-01-25T10:27:15.934Z,6.76
2023-01-25T10:29:44.712Z,6.80
2023-01-25T10:32:20.426Z,6.90
2023-01-25T10:34:57.021Z,6.84
2023-01-25T10:37:33.101Z,6.58
2023-01-25T10:40:18.144Z,6.96
2023-01-25T10:42:58.255Z,6.63
2023-01-25T10:45:26.084Z,6.81
2023-01-25T10:48:05.050Z,6.80
2023-01-25T10:50:46.485Z,7.04
2023-01-25T10:53:34.580Z,7.23
2023-01-25T10:56:11.625Z,7.15
2023-01-25T10:58:48.684Z,7.22
2023-01-25T11:01:34.304Z,6.97
2023-01-25T11:04:03.277Z,6.88
2023-01-25T11:06:48.768Z,6.91
2023-01-25T11:09:22.680Z,6.80
2023-01-25T11:12:03.360Z,7.12
2023-01-25T11:14:33.419Z,6.99
2023-01-25T11:17:07.003Z,7.28
2023-01-25T11:19:40.085Z,7.39
2023-01-25T11:22:24.190Z,7.15
2023-01-25T11:24:52.161Z,7.36
2023-01-25T11:27:26.483Z,7.35
2023-01-25T11:30:07.081Z,7.39
2023-01-25T11:32:35.009Z,7.24
2023-01-25T11:35:03.002Z,7.33
2023-01-25T11:37:57.397Z,7.38
2023-01-25T11:41:12.405Z,7.35
2023-01-25T11:44:04.833Z,7.41
2023-01-25T11:46:59.867Z,6.29
2023-01-25T11:49:43.424Z,6.04
2023-01-25T11:52:39.218Z,6.74
2023-01-25T11:55:27.157Z,6.79
2023-01-25T11:58:34.747Z,6.49
2023-01-25T12:01:27.473Z,6.67
2023-01-25T12:04:44.506Z,6.83
2023-01-25T12:07:28.794Z,6.73
2023-01-25T12:10:05.282Z,6.76
2023-01-25T12:12:50.481Z,6.73
2023-01-25T12:15:45.642Z,6.74
2023-01-25T12:18:57.176Z,6.85
2023-01-25T12:21:53.253Z,6.53
2023-01-25T12:24:59.618Z,6.01
2023-01-25T12:27:53.336Z,6.18
2023-01-25T12:30:56.324Z,6.50
2023-01-25T12:33:38.323Z,5.97
2023-01-25T12:36:21.260Z,6.12
2023-01-25T12:39:16.734Z,6.47
2023-01-25T12:41:54.186Z,6.60
2023-01-25T12:44:55.494Z,6.73
2023-01-25T12:47:57.308Z,6.75
2023-01-25T12:50:57.032Z,6.92
2023-01-25T12:53:42.615Z,6.72
2023-01-25T12:56:25.616Z,6.49
2023-01-25T12:59:29.084Z,6.42
2023-01-25T13:02:39.459Z,6.25
2023-01-25T13:05:30.118Z,6.63
2023-01-25T13:08:15.865Z,6.70
2023-01-25T13:11:24.033Z,6.77
2023-01-25T13:13:52.037Z,6.82
2023-01-25T13:16:36.824Z,6.79
2023-01-25T13:19:04.536Z,6.74
2023-01-25T13:21:47.121Z,6.58
2023-01-25T13:24:23.405Z,6.54
2023-01-25T13:26:54.192Z,6.60
2023-01-25T13:29:40.148Z,6.64
2023-01-25T13:32:12.538Z,5.73
2023-01-25T13:34:44.167Z,6.29
2023-01-25T13:37:31.793Z,6.49
2023-01-25T13:40:09.895Z,6.46
2023-01-25T13:42:39.725Z,6.63
2023-01-25T13:45:20.837Z,6.66
2023-01-25T13:48:23.573Z,6.74
2023-01-25T13:50:59.299Z,6.38
2023-01-25T13:53:33.074Z,6.56
2023-01-25T13:56:01.875Z,6.45
2023-01-25T13:58:38.799Z,6.65
2023-01-25T14:01:16.845Z,6.42
2023-01-25T14:03:56.475Z,6.75
2023-01-25T14:06:37.165Z,6.16
2023-01-25T14:09:16.647Z,6.17
2023-01-25T14:11:54.294Z,6.34
2023-01-25T14:14:33.078Z,6.38
2023-01-25T14:17:09.953Z,6.12
2023-01-25T14:19:40.093Z,6.26
2023-01-25T14:22:30.381Z,6.31
2023-01-25T14:25:15.538Z,5.87
2023-01-25T14:27:48.932Z,6.15
2023-01-25T14:30:21.889Z,6.28
2023-01-25T14:32:55.552Z,6.45
2023-01-25T14:35:43.021Z,6.43
2023-01-25T14:38:34.634Z,6.44
2023-01-25T14:41:14.028Z,6.46
2023-01-25T14:43:46.118Z,6.58
2023-01-25T14:46:31.087Z,6.60
2023-01-25T14:49:25.700Z,6.53
2023-01-25T14:52:05.107Z,6.43
2023-01-25T14:54:37.097Z,6.46
2023-01-25T14:57:07.374Z,6.39
2023-01-25T14:59:42.024Z,6.40
2023-01-25T15:02:46.054Z,6.33
2023-01-25T15:05:30.242Z,6.08
2023-01-25T15:08:08.463Z,5.93
2023-01-25T15:10:53.977Z,6.04
2023-01-25T15:13:27.612Z,6.24
2023-01-25T15:15:58.569Z,6.06
2023-01-25T15:18:49.396Z,5.50
2023-01-25T15:21:30.049Z,5.67
2023-01-25T15:24:06.382Z,5.68
2023-01-25T15:26:36.064Z,5.70
2023-01-25T15:29:15.560Z,5.53
2023-01-25T15:31:44.073Z,5.79
2023-01-25T15:34:25.852Z,5.88
2023-01-25T15:36:53.839Z,6.05
2023-01-25T15:39:21.556Z,5.87
2023-01-25T15:41:53.742Z,5.80
2023-01-25T15:44:22.252Z,5.87
2023-01-25T15:46:52.089Z,5.98
2023-01-25T15:49:27.608Z,6.04
2023-01-25T15:51:56.516Z,6.03
2023-01-25T15:54:24.761Z,6.03
2023-01-25T15:56:58.485Z,6.08
2023-01-25T15:59:27.024Z,6.03
2023-01-25T16:01:54.750Z,6.05
2023-01-25T16:04:22.374Z,6.07
2023-01-25T16:06:53.157Z,6.22
2023-01-25T16:09:29.381Z,6.19
2023-01-25T16:12:00.112Z,6.14
2023-01-25T16:14:31.557Z,6.17
2023-01-25T16:17:04.114Z,6.23
2023-01-25T16:19:33.369Z,6.18
2023-01-25T16:22:00.927Z,6.23
2023-01-25T16:24:28.686Z,6.22
2023-01-25T16:26:58.847Z,6.27
2023-01-25T16:29:27.321Z,6.13
2023-01-25T16:31:56.308Z,6.21
2023-01-25T16:34:23.909Z,6.14
2023-01-25T16:36:51.803Z,6.12
2023-01-25T16:39:27.020Z,6.01
2023-01-25T16:41:56.000Z,6.09
2023-01-25T16:44:23.739Z,5.27
2023-01-25T16:46:51.675Z,5.55
2023-01-25T16:49:26.421Z,5.47
2023-01-25T16:51:56.247Z,5.08
2023-01-25T16:54:25.557Z,5.34
2023-01-25T16:56:54.674Z,5.32
2023-01-25T16:59:24.745Z,5.33
2023-01-25T17:01:52.388Z,5.33
2023-01-25T17:04:20.545Z,5.54
2023-01-25T17:06:50.413Z,5.72
2023-01-25T17:09:24.148Z,5.51
2023-01-25T17:11:54.006Z,5.33
2023-01-25T17:14:22.815Z,5.10
2023-01-25T17:16:53.470Z,5.41
2023-01-25T17:19:21.329Z,5.41
2023-01-25T17:21:49.343Z,5.65
2023-01-25T17:24:21.163Z,5.60
2023-01-25T17:26:49.473Z,5.16
2023-01-25T17:29:17.227Z,5.45
2023-01-25T17:31:45.125Z,5.65
2023-01-25T17:34:15.947Z,5.32
2023-01-25T17:36:44.746Z,5.55
2023-01-25T17:39:15.679Z,5.15
2023-01-25T17:41:45.693Z,5.39
2023-01-25T17:44:20.503Z,5.32
2023-01-25T17:46:49.663Z,4.79
2023-01-25T17:49:17.765Z,5.46
2023-01-25T17:51:46.431Z,5.36
2023-01-25T17:54:14.436Z,5.53
2023-01-25T17:56:42.814Z,5.75
2023-01-25T17:59:11.612Z,5.45
2023-01-25T18:01:42.820Z,5.59
2023-01-25T18:04:13.117Z,5.56
2023-01-25T18:06:40.955Z,5.59
2023-01-25T18:09:09.034Z,5.56
2023-01-25T18:11:40.792Z,5.78
2023-01-25T18:14:13.018Z,5.76
2023-01-25T18:16:42.717Z,5.80
2023-01-25T18:19:11.635Z,5.76
2023-01-25T18:21:41.905Z,5.87
2023-01-25T18:24:26.186Z,5.98
2023-01-25T18:27:20.474Z,6.00
2023-01-25T18:30:24.643Z,5.98
2023-01-25T18:32:52.447Z,5.89
2023-01-25T18:35:20.690Z,6.01
2023-01-25T18:37:48.411Z,5.99
2023-01-25T18:40:18.719Z,5.71
2023-01-25T18:42:46.751Z,5.79
2023-01-25T18:45:14.848Z,5.80
2023-01-25T18:47:47.065Z,5.80
2023-01-25T18:50:23.436Z,5.40
2023-01-25T18:52:51.716Z,5.59
2023-01-25T18:55:19.519Z,5.53
2023-01-25T18:57:47.236Z,5.35
2023-01-25T19:00:17.025Z,5.52
2023-01-25T19:02:44.869Z,5.00
2023-01-25T19:05:13.035Z,4.58
2023-01-25T19:07:40.905Z,4.71
2023-01-25T19:10:09.425Z,5.09
2023-01-25T19:12:37.051Z,5.05
2023-01-25T19:15:05.497Z,5.19
2023-01-25T19:17:33.807Z,4.98
2023-01-25T19:20:02.282Z,5.11
2023-01-25T19:22:30.225Z,5.25
2023-01-25T19:24:58.282Z,5.12
2023-01-25T19:27:26.950Z,4.88
2023-01-25T19:29:54.590Z,5.21
2023-01-25T19:32:22.318Z,5.21
2023-01-25T19:34:51.227Z,5.27
2023-01-25T19:37:19.008Z,5.20
2023-01-25T19:39:46.892Z,5.25
2023-01-25T19:42:18.392Z,5.17
2023-01-25T19:44:47.195Z,5.22
2023-01-25T19:47:15.153Z,5.11
2023-01-25T19:49:42.887Z,4.69
2023-01-25T19:52:10.625Z,4.95
2023-01-25T19:54:38.985Z,5.04
2023-01-25T19:57:06.867Z,5.37
2023-01-25T19:59:37.485Z,5.01
2023-01-25T20:02:05.296Z,4.68
2023-01-25T20:04:32.879Z,4.99
2023-01-25T20:07:00.487Z,4.83
2023-01-25T20:09:28.701Z,4.99
2023-01-25T20:11:57.884Z,5.00
2023-01-25T20:14:25.943Z,4.84
2023-01-25T20:16:53.928Z,5.07
2023-01-25T20:19:21.672Z,4.92
2023-01-25T20:21:49.657Z,4.74
2023-01-25T20:24:17.531Z,4.68
2023-01-25T20:26:45.592Z,4.74
2023-01-25T20:29:14.028Z,4.93
2023-01-25T20:31:46.597Z,5.01
2023-01-25T20:34:18.211Z,4.76
2023-01-25T20:36:47.607Z,4.29
2023-01-25T20:39:18.289Z,4.66
2023-01-25T20:41:46.265Z,4.84
2023-01-25T20:44:17.088Z,4.46
2023-01-25T20:46:45.250Z,4.88
2023-01-25T20:49:18.416Z,4.75
2023-01-25T20:51:47.520Z,4.46
2023-01-25T20:54:15.664Z,4.64
2023-01-25T20:56:47.619Z,4.62
2023-01-25T20:59:19.102Z,4.66
2023-01-25T21:01:46.945Z,4.63
2023-01-25T21:04:32.936Z,4.90
2023-01-25T21:07:00.499Z,5.09
2023-01-25T21:09:28.355Z,5.20
2023-01-25T21:11:55.977Z,5.35
2023-01-25T21:14:23.654Z,5.26
2023-01-25T21:16:51.269Z,4.84
2023-01-25T21:19:19.088Z,4.56
2023-01-25T21:21:48.779Z,4.71
2023-01-25T21:24:16.492Z,5.02
2023-01-25T21:26:46.517Z,5.09
2023-01-25T21:29:14.428Z,5.07
2023-01-25T21:31:46.013Z,5.21
2023-01-25T21:34:13.633Z,5.38
2023-01-25T21:36:42.016Z,5.37
2023-01-25T21:39:17.719Z,5.32
2023-01-25T21:41:45.643Z,5.33
2023-01-25T21:44:38.967Z,5.10
2023-01-25T21:47:29.016Z,5.09
2023-01-25T21:50:13.228Z,5.20
2023-01-25T21:52:41.274Z,4.97
2023-01-25T21:55:19.876Z,4.87
2023-01-25T21:57:47.524Z,4.70
2023-01-25T22:00:16.453Z,4.76
2023-01-25T22:02:44.571Z,4.39
2023-01-25T22:05:12.274Z,4.52
2023-01-25T22:07:39.981Z,4.31
2023-01-25T22:10:08.533Z,4.62
2023-01-25T22:12:36.490Z,4.71
2023-01-25T22:15:04.770Z,4.88
2023-01-25T22:17:32.674Z,4.98
2023-01-25T22:20:00.600Z,4.61
2023-01-25T22:22:28.324Z,4.55
2023-01-25T22:24:56.910Z,4.89
2023-01-25T22:27:38.130Z,5.04
2023-01-25T22:30:08.554Z,4.37
2023-01-25T22:32:36.246Z,4.54
2023-01-25T22:35:04.206Z,4.78
2023-01-25T22:37:34.830Z,4.75
2023-01-25T22:40:04.050Z,4.36
2023-01-25T22:42:31.736Z,4.78
2023-01-25T22:44:59.399Z,4.88
2023-01-25T22:47:27.092Z,4.86
2023-01-25T22:49:54.782Z,5.03
2023-01-25T22:52:27.773Z,5.16
2023-01-25T22:54:55.443Z,5.25
2023-01-25T22:57:23.040Z,4.86
2023-01-25T22:59:50.744Z,4.99
2023-01-25T23:02:18.341Z,4.94
2023-01-25T23:04:45.954Z,4.87
2023-01-25T23:07:18.474Z,4.94
2023-01-25T23:09:48.448Z,4.84
2023-01-25T23:12:16.201Z,4.68
2023-01-25T23:14:53.873Z,4.71
2023-01-25T23:17:42.434Z,4.63
2023-01-25T23:20:12.747Z,4.84
2023-01-25T23:22:40.641Z,5.00
2023-01-25T23:25:09.467Z,5.09
2023-01-25T23:27:37.457Z,5.07
2023-01-25T23:30:07.278Z,5.08
2023-01-25T23:32:35.008Z,4.79
2023-01-25T23:35:02.754Z,4.94
2023-01-25T23:37:30.655Z,4.89
2023-01-25T23:39:58.443Z,5.13
2023-01-25T23:42:26.249Z,5.13
2023-01-25T23:44:53.938Z,5.30
2023-01-25T23:47:23.477Z,5.07
2023-01-25T23:49:51.345Z,5.14
2023-01-25T23:52:19.036Z,5.24
2023-01-25T23:54:46.789Z,5.07
2023-01-25T23:57:14.596Z,4.57
2023-01-25T23:59:42.281Z,4.69
